createdAt,value
2023-10-29T00:01:28.337Z,91140.19
2023-10-29T00:03:56.289Z,91134.66
2023-10-29T00:06:23.261Z,91147.13
2023-10-29T00:08:50.030Z,91144.38
2023-10-29T00:11:16.733Z,91141.78
2023-10-29T00:13:44.206Z,91136.28
2023-10-29T00:16:12.467Z,91139.03
2023-10-29T00:18:39.283Z,91152.81
2023-10-29T00:21:05.892Z,91158.31
2023-10-29T00:23:33.054Z,91161.09
2023-10-29T00:26:00.104Z,91150.06
2023-10-29T00:28:26.776Z,91148.59
2023-10-29T00:30:56.459Z,91146.56
2023-10-29T00:33:23.599Z,91152.81
2023-10-29T00:35:50.268Z,91155.56
2023-10-29T00:38:16.929Z,91137.56
2023-10-29T00:40:43.594Z,91132.03
2023-10-29T00:43:15.259Z,91145.81
2023-10-29T00:45:48.183Z,91150.06
2023-10-29T00:48:14.933Z,91143.06
2023-10-29T00:50:41.708Z,91132.03
2023-10-29T00:53:08.590Z,91130.75
2023-10-29T00:55:36.847Z,91137.56
2023-10-29T00:58:04.459Z,91141.78
2023-10-29T01:00:31.062Z,91132.03
2023-10-29T01:02:57.848Z,91130.75
2023-10-29T01:05:24.631Z,91126.53
2023-10-29T01:07:51.313Z,91122.47
2023-10-29T01:10:17.876Z,91126.53
2023-10-29T01:12:46.481Z,91112.03
2023-10-29T01:15:13.061Z,91107.22
2023-10-29T01:17:39.906Z,91107.97
2023-10-29T01:20:07.298Z,91111.31
2023-10-29T01:22:35.165Z,91112.63
2023-10-29T01:25:06.755Z,91125.81
2023-10-29T01:27:34.294Z,91116.81
2023-10-29T01:30:00.913Z,91118.13
2023-10-29T01:32:27.584Z,91123.63
2023-10-29T01:34:54.286Z,91110.56
2023-10-29T01:37:20.835Z,91110.56
2023-10-29T01:39:47.397Z,91108.53
2023-10-29T01:42:13.933Z,91103.03
2023-10-29T01:44:40.597Z,91101.72
2023-10-29T01:47:07.196Z,91105.06
2023-10-29T01:49:34.579Z,91108.53
2023-10-29T01:52:01.372Z,91104.47
2023-10-29T01:54:28.356Z,91098.97
2023-10-29T01:56:54.959Z,91103.75
2023-10-29T01:59:21.621Z,91114.78
2023-10-29T02:01:48.194Z,91109.97
2023-10-29T02:04:14.812Z,91116.22
2023-10-29T02:06:41.380Z,91116.97
2023-10-29T02:09:13.629Z,91110.72
2023-10-29T02:11:41.107Z,91122.47
2023-10-29T02:14:09.259Z,91122.47
2023-10-29T02:16:35.879Z,91116.97
2023-10-29T02:19:02.524Z,91122.47
2023-10-29T02:21:29.123Z,91122.47
2023-10-29T02:23:56.438Z,91112.19
2023-10-29T02:26:26.173Z,91116.97
2023-10-29T02:28:52.818Z,91112.91
2023-10-29T02:31:20.888Z,91116.97
2023-10-29T02:33:48.315Z,91123.22
2023-10-29T02:36:15.401Z,91111.44
2023-10-29T02:38:43.851Z,91118.41
2023-10-29T02:41:10.508Z,91121.16
2023-10-29T02:43:40.000Z,91117.69
2023-10-29T02:46:06.657Z,91119.16
2023-10-29T02:48:33.550Z,91118.41
2023-10-29T02:51:00.167Z,91118.41
2023-10-29T02:53:26.787Z,91120.47
2023-10-29T02:55:53.337Z,91118.41
2023-10-29T02:58:19.920Z,91129.44
2023-10-29T03:00:46.458Z,91136.44
2023-10-29T03:03:13.166Z,91137.13
2023-10-29T03:05:53.872Z,91140.47
2023-10-29T03:08:23.528Z,91134.97
2023-10-29T03:10:51.329Z,91137.72
2023-10-29T03:13:18.077Z,91136.44
2023-10-29T03:15:44.659Z,91132.19
2023-10-29T03:18:13.021Z,91134.97
2023-10-29T03:20:39.847Z,91123.94
2023-10-29T03:23:06.459Z,91129.44
2023-10-29T03:25:33.214Z,91134.25
2023-10-29T03:27:59.866Z,91133.50
2023-10-29T03:30:26.414Z,91128.72
2023-10-29T03:32:53.306Z,91127.41
2023-10-29T03:35:19.949Z,91114.94
2023-10-29T03:37:46.498Z,91121.31
2023-10-29T03:40:13.141Z,91115.81
2023-10-29T03:42:39.722Z,91120.03
2023-10-29T03:45:06.994Z,91119.47
2023-10-29T03:47:33.732Z,91119.47
2023-10-29T03:50:00.336Z,91114.69
2023-10-29T03:52:26.925Z,91121.63
2023-10-29T03:54:53.468Z,91111.91
2023-10-29T03:57:20.000Z,91109.16
2023-10-29T03:59:46.629Z,91120.19
2023-10-29T04:02:13.245Z,91107.69
2023-10-29T04:04:42.334Z,91107.69
2023-10-29T04:07:09.050Z,91101.44
2023-10-29T04:09:35.621Z,91106.25
2023-10-29T04:12:02.288Z,91114.53
2023-10-29T04:14:28.958Z,91100.75
2023-10-29T04:16:55.553Z,91104.78
2023-10-29T04:19:22.107Z,91093.75
2023-10-29T04:21:48.656Z,91096.34
2023-10-29T04:24:15.213Z,91097.09
2023-10-29T04:26:41.798Z,91097.09
2023-10-29T04:29:08.373Z,91086.63
2023-10-29T04:31:35.002Z,91101.72
2023-10-29T04:34:01.576Z,91104.47
2023-10-29T04:36:28.228Z,91107.22
2023-10-29T04:38:54.777Z,91104.47
2023-10-29T04:41:21.346Z,91108.53
2023-10-29T04:43:48.769Z,91103.75
2023-10-29T04:46:15.345Z,91108.53
2023-10-29T04:48:42.488Z,91102.28
2023-10-29T04:51:09.209Z,91104.47
2023-10-29T04:53:36.117Z,91100.28
2023-10-29T04:56:04.105Z,91103.03
2023-10-29T04:58:33.077Z,91103.03
2023-10-29T05:00:59.985Z,91100.13
2023-10-29T05:03:29.133Z,91102.88
2023-10-29T05:05:56.724Z,91100.13
2023-10-29T05:08:23.700Z,91100.13
2023-10-29T05:10:50.325Z,91104.91
2023-10-29T05:13:16.902Z,91116.66
2023-10-29T05:15:43.892Z,91104.19
2023-10-29T05:18:10.609Z,91111.72
2023-10-29T05:20:38.527Z,91104.91
2023-10-29T05:23:05.975Z,91101.44
2023-10-29T05:25:32.599Z,91108.22
2023-10-29T05:27:59.384Z,91106.94
2023-10-29T05:30:26.258Z,91109.69
2023-10-29T05:32:52.961Z,91101.44
2023-10-29T05:35:19.748Z,91104.19
2023-10-29T05:37:46.324Z,91096.50
2023-10-29T05:40:13.072Z,91102.72
2023-10-29T05:42:39.704Z,91095.19
2023-10-29T05:45:08.164Z,91093.16
2023-10-29T05:47:35.144Z,91095.19
2023-10-29T05:50:02.503Z,91086.19
2023-10-29T05:52:29.097Z,91077.19
2023-10-29T05:54:57.145Z,91080.66
2023-10-29T05:57:24.055Z,91087.50
2023-10-29T05:59:50.656Z,91076.47
2023-10-29T06:02:17.390Z,91082.56
2023-10-29T06:04:44.020Z,91084.56
2023-10-29T06:07:10.855Z,91092.84
2023-10-29T06:09:37.420Z,91091.41
2023-10-29T06:12:04.323Z,91094.00
2023-10-29T06:14:31.362Z,91095.44
2023-10-29T06:17:08.752Z,91087.19
2023-10-29T06:19:38.795Z,91089.94
2023-10-29T06:22:07.568Z,91089.19
2023-10-29T06:24:34.220Z,91094.00
2023-10-29T06:27:01.088Z,91090.66
2023-10-29T06:29:27.806Z,91085.16
2023-10-29T06:31:54.394Z,91096.75
2023-10-29T06:34:23.014Z,91092.53
2023-10-29T06:36:49.908Z,91082.81
2023-10-29T06:39:17.979Z,91085.56
2023-10-29T06:41:44.994Z,91095.13
2023-10-29T06:44:11.690Z,91102.13
2023-10-29T06:46:38.393Z,91100.66
2023-10-29T06:49:05.068Z,91102.13
2023-10-29T06:51:31.696Z,91109.06
2023-10-29T06:53:58.362Z,91111.13
2023-10-29T06:56:25.049Z,91114.59
2023-10-29T06:58:51.671Z,91121.56
2023-10-29T07:01:18.217Z,91127.09
2023-10-29T07:03:45.217Z,91127.09
2023-10-29T07:06:13.065Z,91124.47
2023-10-29T07:08:39.788Z,91116.34
2023-10-29T07:11:07.018Z,91136.97
2023-10-29T07:13:33.920Z,91126.66
2023-10-29T07:16:01.837Z,91133.03
2023-10-29T07:18:28.835Z,91135.78
2023-10-29T07:20:56.970Z,91138.72
2023-10-29T07:23:24.177Z,91138.72
2023-10-29T07:25:51.312Z,91122.16
2023-10-29T07:28:18.712Z,91133.19
2023-10-29T07:30:45.348Z,91135.38
2023-10-29T07:33:12.301Z,91140.88
2023-10-29T07:35:40.216Z,91145.69
2023-10-29T07:38:07.007Z,91148.59
2023-10-29T07:40:33.599Z,91147.88
2023-10-29T07:43:00.198Z,91146.41
2023-10-29T07:45:26.808Z,91144.38
2023-10-29T07:47:53.459Z,91143.06
2023-10-29T07:50:21.703Z,91155.41
2023-10-29T07:52:48.778Z,91148.59
2023-10-29T07:55:15.478Z,91154.09
2023-10-29T07:57:42.111Z,91161.09
2023-10-29T08:00:14.474Z,91150.06
2023-10-29T08:02:42.387Z,91141.03
2023-10-29T08:05:11.636Z,91146.72
2023-10-29T08:07:39.088Z,91140.47
2023-10-29T08:10:06.065Z,91143.22
2023-10-29T08:12:32.953Z,91139.88
2023-10-29T08:14:59.577Z,91158.47
2023-10-29T08:17:26.248Z,91152.22
2023-10-29T08:19:53.520Z,91151.66
2023-10-29T08:22:20.320Z,91155.16
2023-10-29T08:24:48.112Z,91154.41
2023-10-29T08:27:14.780Z,91151.66
2023-10-29T08:29:42.947Z,91144.84
2023-10-29T08:32:09.625Z,91157.31
2023-10-29T08:34:36.387Z,91158.06
2023-10-29T08:37:03.042Z,91156.03
2023-10-29T08:39:31.094Z,91158.81
2023-10-29T08:41:58.363Z,91158.81
2023-10-29T08:44:24.962Z,91153.28
2023-10-29T08:46:51.548Z,91162.25
2023-10-29T08:49:18.172Z,91154.72
2023-10-29T08:51:44.840Z,91151.97
2023-10-29T08:54:11.451Z,91154.72
2023-10-29T08:56:38.393Z,91149.22
2023-10-29T08:59:06.334Z,91149.22
2023-10-29T09:01:33.100Z,91142.38
2023-10-29T09:04:00.967Z,91145.88
2023-10-29T09:06:28.169Z,91145.28
2023-10-29T09:08:54.878Z,91146.78
2023-10-29T09:11:21.505Z,91150.97
2023-10-29T09:13:48.090Z,91145.44
2023-10-29T09:16:15.788Z,91142.84
2023-10-29T09:18:43.071Z,91148.38
2023-10-29T09:21:09.753Z,91142.84
2023-10-29T09:23:36.404Z,91136.03
2023-10-29T09:26:03.086Z,91135.91
2023-10-29T09:28:29.675Z,91138.78
2023-10-29T09:30:56.268Z,91134.00
2023-10-29T09:33:22.985Z,91130.66
2023-10-29T09:35:49.685Z,91140.41
2023-10-29T09:38:17.209Z,91129.53
2023-10-29T09:40:43.846Z,91129.53
2023-10-29T09:43:14.056Z,91128.22
2023-10-29T09:45:46.485Z,91114.44
2023-10-29T09:48:15.098Z,91127.47
2023-10-29T09:50:44.613Z,91130.97
2023-10-29T09:53:16.289Z,91110.34
2023-10-29T09:55:42.988Z,91117.34
2023-10-29T09:58:10.474Z,91114.72
2023-10-29T10:00:38.090Z,91109.22
2023-10-29T10:03:05.238Z,91112.84
2023-10-29T10:05:32.205Z,91115.03
2023-10-29T10:07:58.953Z,91106.75
2023-10-29T10:10:42.816Z,91128.25
2023-10-29T10:13:10.170Z,91113.88
2023-10-29T10:15:38.743Z,91113.88
2023-10-29T10:18:06.955Z,91111.13
2023-10-29T10:20:35.169Z,91091.81
2023-10-29T10:23:05.317Z,91082.22
2023-10-29T10:25:33.456Z,91091.81
2023-10-29T10:28:01.209Z,91103.59
2023-10-29T10:30:36.075Z,91111.13
2023-10-29T10:33:16.109Z,91097.31
2023-10-29T10:35:43.994Z,91102.09
2023-10-29T10:38:12.023Z,91102.09
2023-10-29T10:40:39.236Z,91094.56
2023-10-29T10:43:09.703Z,91086.13
2023-10-29T10:45:38.017Z,91082.06
2023-10-29T10:48:06.380Z,91072.50
2023-10-29T10:50:35.590Z,91085.56
2023-10-29T10:53:02.840Z,91080.78
2023-10-29T10:55:50.781Z,91080.78
2023-10-29T10:58:19.224Z,91076.69
2023-10-29T11:00:46.178Z,91050.59
2023-10-29T11:03:25.498Z,91061.63
2023-10-29T11:05:58.728Z,91054.06
2023-10-29T11:08:26.226Z,91046.50
2023-10-29T11:10:55.063Z,91022.41
2023-10-29T11:13:22.245Z,91031.44
2023-10-29T11:15:50.289Z,91032.88
2023-10-29T11:18:31.487Z,91026.63
2023-10-29T11:21:01.294Z,91007.31
2023-10-29T11:23:29.829Z,91017.75
2023-10-29T11:26:23.181Z,91017.75
2023-10-29T11:28:52.714Z,91011.53
2023-10-29T11:31:24.221Z,91019.22
2023-10-29T11:33:57.072Z,91013.69
2023-10-29T11:36:38.789Z,91012.38
2023-10-29T11:39:17.777Z,91011.09
2023-10-29T11:41:46.342Z,91004.25
2023-10-29T11:44:23.044Z,91000.06
2023-10-29T11:46:58.892Z,90996.72
2023-10-29T11:49:26.722Z,91009.19
2023-10-29T11:51:57.586Z,91002.97
2023-10-29T11:54:24.854Z,91004.41
2023-10-29T11:56:52.566Z,90999.63
2023-10-29T11:59:19.514Z,91004.41
2023-10-29T12:01:46.192Z,91006.59
2023-10-29T12:04:15.443Z,91008.06
2023-10-29T12:06:49.908Z,91007.31
2023-10-29T12:09:18.405Z,91001.81
2023-10-29T12:11:46.006Z,91003.25
2023-10-29T12:14:12.791Z,90998.44
2023-10-29T12:16:39.589Z,90994.97
2023-10-29T12:19:06.407Z,90992.94
2023-10-29T12:21:33.331Z,90994.97
2023-10-29T12:24:00.270Z,90994.97
2023-10-29T12:26:27.087Z,90988.16
2023-10-29T12:28:53.759Z,90993.66
2023-10-29T12:31:27.903Z,90993.66
2023-10-29T12:33:58.976Z,90988.16
2023-10-29T12:36:27.024Z,90978.56
2023-10-29T12:38:54.748Z,90980.03
2023-10-29T12:41:23.013Z,90985.53
2023-10-29T12:43:53.485Z,90981.47
2023-10-29T12:46:22.908Z,90975.94
2023-10-29T12:49:04.489Z,90986.97
2023-10-29T12:51:36.642Z,90993.22
2023-10-29T12:54:13.006Z,90988.44
2023-10-29T12:57:16.203Z,90989.19
2023-10-29T12:59:44.638Z,90981.78
2023-10-29T13:02:25.111Z,90983.22
2023-10-29T13:04:51.916Z,90989.47
2023-10-29T13:07:18.719Z,90993.13
2023-10-29T13:09:46.176Z,90991.81
2023-10-29T13:12:13.056Z,90982.19
2023-10-29T13:14:40.660Z,90980.91
2023-10-29T13:17:08.361Z,90985.69
2023-10-29T13:19:35.227Z,90986.44
2023-10-29T13:22:02.253Z,90983.09
2023-10-29T13:24:31.038Z,90987.88
2023-10-29T13:26:58.208Z,90993.38
2023-10-29T13:29:25.949Z,90987.88
2023-10-29T13:31:52.577Z,90993.38
2023-10-29T13:34:19.166Z,90994.72
2023-10-29T13:36:45.913Z,90986.44
2023-10-29T13:39:12.606Z,90997.47
2023-10-29T13:41:39.781Z,90989.19
2023-10-29T13:44:07.445Z,90988.44
2023-10-29T13:46:34.203Z,90999.50
2023-10-29T13:49:01.470Z,91005.00
2023-10-29T13:51:28.388Z,91001.53
2023-10-29T13:53:55.318Z,90993.25
2023-10-29T13:56:23.990Z,90983.53
2023-10-29T13:58:50.764Z,90992.38
2023-10-29T14:01:20.126Z,90990.47
2023-10-29T14:03:48.387Z,90993.81
2023-10-29T14:06:15.827Z,90995.28
2023-10-29T14:08:42.553Z,90994.56
2023-10-29T14:11:09.326Z,90998.63
2023-10-29T14:13:35.938Z,90994.56
2023-10-29T14:16:03.348Z,90998.63
2023-10-29T14:18:30.468Z,90986.88
2023-10-29T14:20:57.580Z,90999.34
2023-10-29T14:23:30.379Z,90990.38
2023-10-29T14:25:57.014Z,90997.16
2023-10-29T14:28:23.966Z,90986.13
2023-10-29T14:30:50.969Z,90991.66
2023-10-29T14:33:17.795Z,90988.16
2023-10-29T14:35:44.594Z,90996.44
2023-10-29T14:38:11.248Z,90990.22
2023-10-29T14:40:37.797Z,91002.69
2023-10-29T14:43:20.674Z,91006.78
2023-10-29T14:46:03.440Z,91001.97
2023-10-29T14:48:30.630Z,91008.22
2023-10-29T14:50:58.953Z,91006.78
2023-10-29T14:53:25.479Z,91001.25
2023-10-29T14:55:52.102Z,90998.50
2023-10-29T14:58:18.734Z,90995.72
2023-10-29T15:00:46.158Z,91000.53
2023-10-29T15:03:13.466Z,90999.78
2023-10-29T15:05:40.606Z,91009.38
2023-10-29T15:08:07.279Z,91013.59
2023-10-29T15:10:34.001Z,91012.88
2023-10-29T15:13:00.774Z,91009.38
2023-10-29T15:15:30.270Z,91012.72
2023-10-29T15:17:58.271Z,91032.75
2023-10-29T15:20:27.480Z,91039.59
2023-10-29T15:22:54.640Z,91037.56
2023-10-29T15:25:21.177Z,91034.06
2023-10-29T15:27:47.788Z,91039.59
2023-10-29T15:30:14.561Z,91036.81
2023-10-29T15:32:41.710Z,91044.38
2023-10-29T15:35:08.765Z,91040.31
2023-10-29T15:37:35.315Z,91035.34
2023-10-29T15:40:03.718Z,91046.41
2023-10-29T15:42:30.400Z,91038.13
2023-10-29T15:44:56.966Z,91036.66
2023-10-29T15:47:24.603Z,91024.88
2023-10-29T15:49:54.311Z,91024.16
2023-10-29T15:52:21.102Z,91026.94
2023-10-29T15:54:48.104Z,91040.72
2023-10-29T15:57:15.786Z,91028.22
2023-10-29T15:59:42.859Z,91030.97
2023-10-29T16:02:09.496Z,91028.94
2023-10-29T16:04:36.284Z,91033.75
2023-10-29T16:07:04.453Z,91035.22
2023-10-29T16:09:31.685Z,91040.72
2023-10-29T16:11:58.247Z,91033.34
2023-10-29T16:14:25.472Z,91034.06
2023-10-29T16:16:52.090Z,91033.34
2023-10-29T16:19:18.757Z,91034.81
2023-10-29T16:21:46.759Z,91027.22
2023-10-29T16:24:14.626Z,91041.03
2023-10-29T16:26:41.330Z,91038.41
2023-10-29T16:29:07.921Z,91035.66
2023-10-29T16:31:34.494Z,91038.41
2023-10-29T16:34:01.360Z,91038.41
2023-10-29T16:36:28.672Z,91041.03
2023-10-29T16:38:57.153Z,91052.06
2023-10-29T16:41:23.712Z,91056.16
2023-10-29T16:43:51.145Z,91053.22
2023-10-29T16:46:18.479Z,91059.47
2023-10-29T16:48:46.713Z,91066.84
2023-10-29T16:51:13.383Z,91053.06
2023-10-29T16:53:40.092Z,91060.03
2023-10-29T16:56:08.066Z,91064.81
2023-10-29T16:58:36.005Z,91068.31
2023-10-29T17:01:02.546Z,91073.84
2023-10-29T17:03:29.270Z,91076.59
2023-10-29T17:05:56.268Z,91072.38
2023-10-29T17:08:22.937Z,91072.38
2023-10-29T17:10:49.486Z,91081.22
2023-10-29T17:13:17.707Z,91093.00
2023-10-29T17:15:44.339Z,91090.25
2023-10-29T17:18:11.770Z,91092.28
2023-10-29T17:20:38.451Z,91086.00
2023-10-29T17:23:05.048Z,91097.78
2023-10-29T17:25:36.066Z,91103.31
2023-10-29T17:28:02.744Z,91105.31
2023-10-29T17:30:29.584Z,91109.41
2023-10-29T17:32:58.762Z,91099.81
2023-10-29T17:35:30.460Z,91105.19
2023-10-29T17:37:57.883Z,91112.16
2023-10-29T17:40:25.380Z,91102.56
2023-10-29T17:42:51.906Z,91109.41
2023-10-29T17:45:20.580Z,91103.88
2023-10-29T17:47:52.341Z,91112.16
2023-10-29T17:50:19.097Z,91117.69
2023-10-29T17:52:45.622Z,91117.69
2023-10-29T17:55:12.254Z,91121.72
2023-10-29T17:57:38.800Z,91117.69
2023-10-29T18:00:08.529Z,91119.72
2023-10-29T18:02:36.479Z,91110.69
2023-10-29T18:05:04.354Z,91110.69
2023-10-29T18:07:30.809Z,91109.25
2023-10-29T18:09:57.392Z,91116.94
2023-10-29T18:12:24.018Z,91121.03
2023-10-29T18:14:53.976Z,91120.28
2023-10-29T18:17:20.783Z,91116.22
2023-10-29T18:19:47.429Z,91110.69
2023-10-29T18:22:14.070Z,91112.16
2023-10-29T18:24:40.668Z,91123.19
2023-10-29T18:27:07.277Z,91123.19
2023-10-29T18:29:33.878Z,91116.22
2023-10-29T18:32:00.641Z,91116.22
2023-10-29T18:34:27.253Z,91117.69
2023-10-29T18:36:54.158Z,91114.94
2023-10-29T18:39:20.767Z,91116.22
2023-10-29T18:41:47.371Z,91123.19
2023-10-29T18:44:13.916Z,91120.44
2023-10-29T18:46:40.554Z,91130.00
2023-10-29T18:49:07.147Z,91121.72
2023-10-29T18:51:33.732Z,91116.22
2023-10-29T18:54:00.349Z,91116.22
2023-10-29T18:56:27.077Z,91117.69
2023-10-29T18:58:56.994Z,91122.47
2023-10-29T19:01:23.676Z,91125.81
2023-10-29T19:03:50.655Z,91135.53
2023-10-29T19:06:17.320Z,91142.38
2023-10-29T19:08:43.887Z,91139.03
2023-10-29T19:11:11.293Z,91138.28
2023-10-29T19:13:38.031Z,91141.03
2023-10-29T19:16:07.734Z,91131.47
2023-10-29T19:18:35.665Z,91144.13
2023-10-29T19:21:02.467Z,91139.34
2023-10-29T19:23:29.124Z,91139.47
2023-10-29T19:25:57.737Z,91142.97
2023-10-29T19:28:24.330Z,91138.94
2023-10-29T19:31:10.495Z,91133.41
2023-10-29T19:33:41.257Z,91145.88
2023-10-29T19:36:15.183Z,91141.84
2023-10-29T19:38:42.548Z,91157.66
2023-10-29T19:41:09.686Z,91154.91
2023-10-29T19:43:36.408Z,91152.88
2023-10-29T19:46:05.248Z,91168.69
2023-10-29T19:48:32.081Z,91172.19
2023-10-29T19:51:03.955Z,91173.63
2023-10-29T19:53:32.102Z,91169.44
2023-10-29T19:55:59.453Z,91181.91
2023-10-29T19:58:26.564Z,91191.50
2023-10-29T20:01:02.415Z,91184.53
2023-10-29T20:03:29.084Z,91197.03
2023-10-29T20:05:55.809Z,91197.63
2023-10-29T20:08:23.233Z,91198.31
2023-10-29T20:10:49.789Z,91195.56
2023-10-29T20:13:18.129Z,91199.63
2023-10-29T20:15:44.673Z,91204.44
2023-10-29T20:18:11.334Z,91203.69
2023-10-29T20:20:39.119Z,91203.69
2023-10-29T20:23:05.741Z,91209.22
2023-10-29T20:25:32.405Z,91203.69
2023-10-29T20:27:59.019Z,91214.00
2023-10-29T20:30:25.739Z,91218.78
2023-10-29T20:32:52.636Z,91214.00
2023-10-29T20:35:19.391Z,91213.25
2023-10-29T20:37:46.048Z,91211.81
2023-10-29T20:40:13.119Z,91207.56
2023-10-29T20:42:39.666Z,91211.81
2023-10-29T20:45:07.221Z,91211.81
2023-10-29T20:47:33.938Z,91207.72
2023-10-29T20:50:00.481Z,91217.34
2023-10-29T20:52:27.061Z,91213.84
2023-10-29T20:54:53.616Z,91224.13
2023-10-29T20:57:20.283Z,91211.50
2023-10-29T20:59:47.103Z,91215.84
2023-10-29T21:02:13.844Z,91215.84
2023-10-29T21:04:41.308Z,91219.94
2023-10-29T21:07:07.910Z,91213.69
2023-10-29T21:09:34.547Z,91221.94
2023-10-29T21:12:01.199Z,91222.69
2023-10-29T21:14:27.803Z,91229.50
2023-10-29T21:16:54.337Z,91223.97
2023-10-29T21:19:27.064Z,91222.53
2023-10-29T21:21:57.522Z,91226.59
2023-10-29T21:24:24.077Z,91220.94
2023-10-29T21:26:52.457Z,91228.47
2023-10-29T21:29:19.633Z,91233.25
2023-10-29T21:31:46.338Z,91235.84
2023-10-29T21:34:13.225Z,91234.41
2023-10-29T21:36:39.809Z,91245.44
2023-10-29T21:39:08.331Z,91239.19
2023-10-29T21:41:34.991Z,91238.47
2023-10-29T21:44:01.557Z,91238.47
2023-10-29T21:46:28.227Z,91242.53
2023-10-29T21:48:54.939Z,91246.59
2023-10-29T21:51:21.826Z,91247.31
2023-10-29T21:53:48.520Z,91242.38
2023-10-29T21:56:15.097Z,91249.22
2023-10-29T21:58:41.630Z,91250.66
2023-10-29T22:01:12.251Z,91253.41
2023-10-29T22:03:39.093Z,91259.50
2023-10-29T22:06:09.677Z,91265.75
2023-10-29T22:08:39.360Z,91255.44
2023-10-29T22:11:08.055Z,91265.75
2023-10-29T22:13:40.749Z,91250.66
2023-10-29T22:16:10.683Z,91248.47
2023-10-29T22:18:38.392Z,91253.41
2023-10-29T22:21:13.338Z,91250.66
2023-10-29T22:23:40.931Z,91248.06
2023-10-29T22:26:09.432Z,91246.75
2023-10-29T22:28:37.850Z,91256.50
2023-10-29T22:31:04.830Z,91256.50
2023-10-29T22:33:32.512Z,91255.00
2023-10-29T22:36:04.998Z,91262.00
2023-10-29T22:38:31.941Z,91255.75
2023-10-29T22:41:06.579Z,91240.66
2023-10-29T22:43:34.191Z,91239.94
2023-10-29T22:46:01.863Z,91237.19
2023-10-29T22:48:28.861Z,91239.94
2023-10-29T22:50:56.307Z,91245.44
2023-10-29T22:53:26.667Z,91247.47
2023-10-29T22:55:53.781Z,91254.47
2023-10-29T22:58:20.356Z,91249.50
2023-10-29T23:00:47.009Z,91253.56
2023-10-29T23:03:13.754Z,91243.84
2023-10-29T23:05:40.389Z,91250.66
2023-10-29T23:08:07.146Z,91256.16
2023-10-29T23:10:35.612Z,91244.97
2023-10-29T23:13:02.163Z,91249.22
2023-10-29T23:15:28.792Z,91261.53
2023-10-29T23:17:55.380Z,91229.91
2023-10-29T23:20:22.024Z,91232.66
2023-10-29T23:22:48.593Z,91246.44
2023-10-29T23:25:15.193Z,91238.88
2023-10-29T23:27:41.962Z,91244.97
2023-10-29T23:30:09.174Z,91242.97
2023-10-29T23:32:35.962Z,91239.63
2023-10-29T23:35:02.646Z,91227.13
2023-10-29T23:37:29.194Z,91228.59
2023-10-29T23:39:55.798Z,91241.09
2023-10-29T23:42:23.124Z,91234.09
2023-10-29T23:44:49.806Z,91233.38
2023-10-29T23:47:16.369Z,91236.84
2023-10-29T23:49:43.234Z,91227.13
2023-10-29T23:52:09.868Z,91221.47
2023-10-29T23:54:36.595Z,91221.63
2023-10-29T23:57:03.595Z,91220.16
2023-10-29T23:59:30.202Z,91218.72
